Airfield :







YOU CAN JOIN US ON...

 
LOGIN :

Register | Disclaimer

   EN    FR    IT 

 









Legend :    VFR   Marginal VFR   IFR   Intensive IFR   Very Intensive IFR
Visi :
Ceiling :
>= 8 km
>= 3000ft
5 to 8 km
1000 to 3000 ft
1500m to 5 km
500 to 1000 ft
800 to 1500m
200 to 500 ft
< 800m
< 200 ft
Symbols :   Thunderstorms  Fog  Heavy snow  Heavy precipitations  Wind > 20 kt






- Airport Elevation : 103 ft
- IATA code : YQC


CYHA - Quaqtaq

CURRENT METAR :
  • 171800Z 15005KT 4SM BR BKN005 OVC013 04/04 A2939 RMK SC6SC2 SLP955

EXPIRED METARs :
  • 171751Z 15004KT 6SM BR BKN006 OVC012 04/03 A2939 RMK SC5SC3 SLP955
  • 171727Z 14006KT 3SM -DZ BR BKN003 OVC012 04/03 A2938 RMK ST6SC2 VIS SW 10 SLP954
  • 171716Z 12008KT 1SM -DZ BR BKN002 OVC016 04/04 A2938 RMK ST7SC1 PRESRR SLP952
  • 171706Z 11009KT 1/2SM FG BKN003 OVC016 04/03 A2937 RMK FG5ST2SC1 PRESRR SLP950
  • 171607Z 09010KT 1/4SM FG VV003 04/03 A2937 RMK FG8 SLP949

TAF TAF CYHA
Valid from the 17 at 14:00 until the 17 at 21:00 UTC


171342Z 1714/1721 12015KT 1/2SM -DZ FG OVC003
TEMPO 1714/1721 3SM BR OVC008 RMK NXT FCST WILL BE ISSUED AT 181345Z
CZUL FIR / North America



MET'MAP, your aeronautical weather chart ! - Copyright ORBIFLY December 2007 - Disclaimer

ORBIFLY MET'MAP TEAM :

Programming & Development : Alexandra Zaïnal
Concept & original design : Baudouin d'Aumeries
Assistance for programming : Marc-Olivier Méhu
Technical & hardware support : Manuel Goepfert

Contact : metmap@orbifly.com




SOURCES & CREDITS :

   NOAA